createdAt,value
2023-01-19T00:00:10.801Z,55.19
2023-01-19T00:02:39.944Z,54.93
2023-01-19T00:05:08.272Z,55.23
2023-01-19T00:07:35.987Z,54.99
2023-01-19T00:10:03.704Z,55.18
2023-01-19T00:12:31.386Z,54.81
2023-01-19T00:14:59.609Z,55.05
2023-01-19T00:17:27.286Z,55.00
2023-01-19T00:19:56.307Z,55.05
2023-01-19T00:22:23.986Z,54.71
2023-01-19T00:24:51.660Z,55.15
2023-01-19T00:27:19.334Z,55.02
2023-01-19T00:29:47.163Z,54.98
2023-01-19T00:32:14.874Z,54.95
2023-01-19T00:34:42.567Z,54.82
2023-01-19T00:37:12.000Z,54.64
2023-01-19T00:39:39.660Z,54.83
2023-01-19T00:42:25.027Z,54.58
2023-01-19T00:44:52.707Z,54.86
2023-01-19T00:47:20.378Z,54.79
2023-01-19T00:49:48.052Z,54.65
2023-01-19T00:52:17.160Z,54.80
2023-01-19T00:54:44.825Z,54.61
2023-01-19T00:57:12.662Z,54.51
2023-01-19T00:59:40.375Z,54.66
2023-01-19T01:02:08.180Z,55.36
2023-01-19T01:04:35.941Z,54.97
2023-01-19T01:07:04.189Z,55.09
2023-01-19T01:09:33.327Z,54.91
2023-01-19T01:12:00.987Z,54.70
2023-01-19T01:14:28.863Z,54.89
2023-01-19T01:16:56.579Z,54.93
2023-01-19T01:19:24.258Z,55.13
2023-01-19T01:21:51.942Z,55.02
2023-01-19T01:24:20.749Z,54.89
2023-01-19T01:26:49.771Z,55.37
2023-01-19T01:29:17.424Z,55.31
2023-01-19T01:31:45.373Z,55.52
2023-01-19T01:34:13.063Z,55.58
2023-01-19T01:36:40.730Z,55.54
2023-01-19T01:39:08.415Z,55.24
2023-01-19T01:41:36.111Z,55.35
2023-01-19T01:44:08.263Z,55.45
2023-01-19T01:46:36.233Z,55.34
2023-01-19T01:49:05.565Z,55.40
2023-01-19T01:51:34.546Z,55.27
2023-01-19T01:54:09.904Z,55.63
2023-01-19T01:56:39.753Z,55.27
2023-01-19T01:59:10.393Z,55.22
2023-01-19T02:01:55.676Z,55.28
2023-01-19T02:04:23.735Z,55.24
2023-01-19T02:07:09.049Z,55.16
2023-01-19T02:09:55.574Z,55.15
2023-01-19T02:12:41.450Z,55.25
2023-01-19T02:15:17.618Z,55.17
2023-01-19T02:17:45.289Z,55.23
2023-01-19T02:20:13.302Z,55.53
2023-01-19T02:22:44.282Z,55.78
2023-01-19T02:25:13.289Z,55.82
2023-01-19T02:27:40.958Z,55.76
2023-01-19T02:30:10.028Z,55.85
2023-01-19T02:32:37.689Z,55.75
2023-01-19T02:35:05.757Z,56.03
2023-01-19T02:37:34.229Z,56.04
2023-01-19T02:40:02.783Z,55.68
2023-01-19T02:42:33.554Z,55.65
2023-01-19T02:45:06.524Z,55.81
2023-01-19T02:47:38.806Z,55.88
2023-01-19T02:50:07.134Z,55.53
2023-01-19T02:52:34.789Z,55.99
2023-01-19T02:55:05.543Z,55.58
2023-01-19T02:57:44.357Z,56.87
2023-01-19T03:00:18.845Z,57.71
2023-01-19T03:02:51.849Z,56.95
2023-01-19T03:05:33.489Z,56.28
2023-01-19T03:08:07.801Z,56.04
2023-01-19T03:10:41.265Z,55.98
2023-01-19T03:13:12.094Z,55.86
2023-01-19T03:15:42.132Z,55.69
2023-01-19T03:18:10.466Z,55.68
2023-01-19T03:20:38.128Z,55.75
2023-01-19T03:23:08.039Z,55.75
2023-01-19T03:25:37.670Z,55.69
2023-01-19T03:28:05.737Z,55.57
2023-01-19T03:30:36.203Z,55.57
2023-01-19T03:33:07.241Z,55.92
2023-01-19T03:35:36.757Z,56.89
2023-01-19T03:38:08.613Z,56.38
2023-01-19T03:40:36.314Z,55.68
2023-01-19T03:43:04.192Z,55.94
2023-01-19T03:45:32.595Z,55.61
2023-01-19T03:48:01.626Z,55.46
2023-01-19T03:50:30.183Z,55.59
2023-01-19T03:53:07.409Z,55.61
2023-01-19T03:55:35.515Z,55.61
2023-01-19T03:58:03.257Z,55.51
2023-01-19T04:00:31.038Z,55.43
2023-01-19T04:02:59.356Z,55.51
2023-01-19T04:05:29.364Z,55.42
2023-01-19T04:07:57.030Z,55.34
2023-01-19T04:10:24.765Z,55.12
2023-01-19T04:12:58.329Z,55.05
2023-01-19T04:15:26.193Z,55.37
2023-01-19T04:17:53.867Z,55.23
2023-01-19T04:20:22.063Z,55.08
2023-01-19T04:22:51.085Z,55.07
2023-01-19T04:25:18.744Z,55.11
2023-01-19T04:27:46.429Z,55.92
2023-01-19T04:30:14.887Z,55.86
2023-01-19T04:32:42.538Z,55.62
2023-01-19T04:35:10.388Z,55.50
2023-01-19T04:37:38.093Z,55.20
2023-01-19T04:40:08.954Z,55.22
2023-01-19T04:42:36.653Z,54.93
2023-01-19T04:45:04.591Z,55.08
2023-01-19T04:47:32.262Z,54.95
2023-01-19T04:50:00.002Z,55.16
2023-01-19T04:52:34.836Z,54.95
2023-01-19T04:55:02.803Z,55.07
2023-01-19T04:57:31.997Z,55.04
2023-01-19T04:59:59.704Z,54.90
2023-01-19T05:02:27.478Z,55.11
2023-01-19T05:04:55.201Z,54.97
2023-01-19T05:07:22.883Z,55.09
2023-01-19T05:09:50.572Z,55.13
2023-01-19T05:12:18.285Z,55.53
2023-01-19T05:14:47.336Z,56.14
2023-01-19T05:17:15.023Z,56.44
2023-01-19T05:19:42.699Z,56.56
2023-01-19T05:22:10.642Z,55.96
2023-01-19T05:24:38.304Z,55.57
2023-01-19T05:27:05.962Z,55.59
2023-01-19T05:29:34.246Z,55.50
2023-01-19T05:32:03.335Z,56.77
2023-01-19T05:34:31.048Z,56.28
2023-01-19T05:36:58.706Z,56.31
2023-01-19T05:39:26.749Z,56.20
2023-01-19T05:41:54.432Z,56.00
2023-01-19T05:44:22.189Z,56.13
2023-01-19T05:46:49.910Z,55.71
2023-01-19T05:49:19.051Z,55.76
2023-01-19T05:51:46.697Z,55.73
2023-01-19T05:54:15.246Z,55.65
2023-01-19T05:56:42.943Z,55.88
2023-01-19T05:59:10.660Z,55.62
2023-01-19T06:01:39.876Z,55.86
2023-01-19T06:04:07.891Z,55.69
2023-01-19T06:06:36.931Z,55.75
2023-01-19T06:09:04.707Z,55.66
2023-01-19T06:11:32.394Z,55.80
2023-01-19T06:14:00.064Z,56.09
2023-01-19T06:16:28.051Z,55.37
2023-01-19T06:18:55.839Z,54.88
2023-01-19T06:21:24.016Z,54.95
2023-01-19T06:23:53.041Z,54.89
2023-01-19T06:26:20.720Z,54.68
2023-01-19T06:28:48.516Z,54.59
2023-01-19T06:31:16.261Z,54.53
2023-01-19T06:33:43.942Z,54.13
2023-01-19T06:36:11.610Z,55.39
2023-01-19T06:38:39.318Z,55.95
2023-01-19T06:41:08.401Z,56.14
2023-01-19T06:43:36.078Z,56.08
2023-01-19T06:46:04.758Z,56.07
2023-01-19T06:48:32.499Z,56.23
2023-01-19T06:51:00.180Z,56.35
2023-01-19T06:53:30.089Z,56.28
2023-01-19T06:56:00.213Z,55.92
2023-01-19T06:58:29.586Z,55.87
2023-01-19T07:01:00.165Z,55.77
2023-01-19T07:03:27.933Z,55.54
2023-01-19T07:05:56.811Z,55.50
2023-01-19T07:08:24.752Z,55.63
2023-01-19T07:11:22.320Z,55.52
2023-01-19T07:13:42.934Z,55.32
2023-01-19T07:16:12.182Z,55.02
2023-01-19T07:18:40.164Z,55.08
2023-01-19T07:21:07.922Z,55.02
2023-01-19T07:23:35.611Z,54.81
2023-01-19T07:26:03.315Z,55.03
2023-01-19T07:28:31.586Z,54.98
2023-01-19T07:31:00.732Z,54.70
2023-01-19T07:33:29.853Z,54.72
2023-01-19T07:35:57.505Z,54.57
2023-01-19T07:38:25.254Z,54.29
2023-01-19T07:40:52.905Z,54.41
2023-01-19T07:43:20.953Z,54.23
2023-01-19T07:45:48.677Z,54.21
2023-01-19T07:48:17.761Z,53.98
2023-01-19T07:50:45.647Z,54.07
2023-01-19T07:53:13.289Z,53.84
2023-01-19T07:55:40.942Z,53.93
2023-01-19T07:58:08.604Z,53.79
2023-01-19T08:00:36.424Z,53.71
2023-01-19T08:03:04.489Z,53.79
2023-01-19T08:05:33.824Z,53.69
2023-01-19T08:08:01.514Z,53.83
2023-01-19T08:10:29.495Z,53.77
2023-01-19T08:12:57.524Z,53.66
2023-01-19T08:15:25.423Z,53.68
2023-01-19T08:17:57.702Z,53.76
2023-01-19T08:20:25.782Z,53.55
2023-01-19T08:23:00.006Z,53.44
2023-01-19T08:25:28.619Z,53.34
2023-01-19T08:27:57.020Z,53.40
2023-01-19T08:30:26.663Z,53.39
2023-01-19T08:32:54.919Z,53.24
2023-01-19T08:35:23.695Z,53.35
2023-01-19T08:37:51.382Z,53.23
2023-01-19T08:40:20.712Z,53.38
2023-01-19T08:42:48.533Z,53.23
2023-01-19T08:45:16.355Z,53.30
2023-01-19T08:47:44.053Z,53.24
2023-01-19T08:50:12.726Z,53.16
2023-01-19T08:52:40.391Z,53.12
2023-01-19T08:55:11.184Z,53.05
2023-01-19T08:57:40.989Z,53.13
2023-01-19T09:00:11.027Z,53.00
2023-01-19T09:02:38.843Z,52.87
2023-01-19T09:05:07.724Z,52.99
2023-01-19T09:07:35.769Z,53.14
2023-01-19T09:10:03.900Z,53.04
2023-01-19T09:12:31.577Z,52.73
2023-01-19T09:15:00.722Z,52.82
2023-01-19T09:17:28.481Z,52.91
2023-01-19T09:19:56.127Z,52.98
2023-01-19T09:22:23.834Z,52.78
2023-01-19T09:24:51.489Z,52.88
2023-01-19T09:27:19.131Z,52.73
2023-01-19T09:29:52.304Z,52.88
2023-01-19T09:32:21.582Z,52.78
2023-01-19T09:34:49.275Z,52.61
2023-01-19T09:37:17.115Z,52.67
2023-01-19T09:39:44.827Z,52.38
2023-01-19T09:42:17.155Z,52.56
2023-01-19T09:44:44.835Z,52.21
2023-01-19T09:47:14.877Z,52.55
2023-01-19T09:49:45.466Z,52.31
2023-01-19T09:52:13.390Z,52.33
2023-01-19T09:54:44.107Z,52.26
2023-01-19T09:57:12.122Z,52.52
2023-01-19T09:59:39.776Z,52.28
2023-01-19T10:02:14.123Z,52.41
2023-01-19T10:04:43.655Z,52.32
2023-01-19T10:07:15.945Z,52.37
2023-01-19T10:09:58.234Z,52.31
2023-01-19T10:12:33.814Z,52.19
2023-01-19T10:15:04.735Z,52.31
2023-01-19T10:17:38.357Z,52.20
2023-01-19T10:20:09.838Z,52.19
2023-01-19T10:22:37.696Z,52.17
2023-01-19T10:25:06.462Z,52.46
2023-01-19T10:27:34.858Z,52.29
2023-01-19T10:30:02.575Z,52.36
2023-01-19T10:32:31.047Z,52.21
2023-01-19T10:34:59.829Z,52.12
2023-01-19T10:37:31.751Z,52.00
2023-01-19T10:40:02.035Z,52.11
2023-01-19T10:42:30.539Z,52.04
2023-01-19T10:44:58.195Z,51.97
2023-01-19T10:47:31.067Z,51.73
2023-01-19T10:49:58.756Z,51.97
2023-01-19T10:52:30.960Z,51.67
2023-01-19T10:54:59.285Z,51.77
2023-01-19T10:57:30.492Z,51.78
2023-01-19T10:59:58.425Z,51.86
2023-01-19T11:02:27.712Z,51.71
2023-01-19T11:04:56.469Z,51.50
2023-01-19T11:07:24.798Z,51.79
2023-01-19T11:10:13.217Z,51.67
2023-01-19T11:12:41.784Z,51.93
2023-01-19T11:15:14.974Z,51.78
2023-01-19T11:17:42.955Z,51.73
2023-01-19T11:20:19.643Z,51.44
2023-01-19T11:22:48.832Z,51.45
2023-01-19T11:25:27.961Z,51.89
2023-01-19T11:27:55.640Z,52.04
2023-01-19T11:30:25.041Z,51.76
2023-01-19T11:32:52.835Z,51.66
2023-01-19T11:35:35.085Z,51.47
2023-01-19T11:38:14.829Z,51.45
2023-01-19T11:40:43.899Z,51.56
2023-01-19T11:43:11.947Z,51.54
2023-01-19T11:45:39.678Z,51.53
2023-01-19T11:48:07.756Z,51.44
2023-01-19T11:50:37.412Z,51.45
2023-01-19T11:53:07.414Z,51.47
2023-01-19T11:55:37.851Z,51.25
2023-01-19T11:58:06.891Z,51.57
2023-01-19T12:00:36.850Z,51.37
2023-01-19T12:03:07.954Z,51.31
2023-01-19T12:05:35.675Z,51.23
2023-01-19T12:08:06.733Z,51.45
2023-01-19T12:10:36.393Z,51.40
2023-01-19T12:13:04.210Z,51.43
2023-01-19T12:15:36.103Z,51.60
2023-01-19T12:18:04.180Z,51.35
2023-01-19T12:20:32.818Z,51.42
2023-01-19T12:23:05.441Z,51.41
2023-01-19T12:25:37.279Z,51.34
2023-01-19T12:28:06.398Z,51.54
2023-01-19T12:30:35.906Z,51.29
2023-01-19T12:33:23.020Z,51.20
2023-01-19T12:35:58.027Z,52.03
2023-01-19T12:38:37.590Z,51.65
2023-01-19T12:41:25.515Z,51.20
2023-01-19T12:44:22.136Z,51.42
2023-01-19T12:46:51.886Z,50.98
2023-01-19T12:49:25.147Z,51.29
2023-01-19T12:51:54.026Z,51.48
2023-01-19T12:54:27.199Z,50.98
2023-01-19T12:56:58.383Z,51.14
2023-01-19T12:59:26.700Z,51.06
2023-01-19T13:02:43.360Z,50.89
2023-01-19T13:05:27.473Z,50.98
2023-01-19T13:08:23.428Z,51.13
2023-01-19T13:11:16.058Z,50.85
2023-01-19T13:13:44.482Z,50.97
2023-01-19T13:16:48.114Z,50.67
2023-01-19T13:19:18.249Z,50.63
2023-01-19T13:21:46.494Z,50.85
2023-01-19T13:24:15.701Z,50.87
2023-01-19T13:26:44.355Z,50.69
2023-01-19T13:29:26.104Z,50.58
2023-01-19T13:31:55.364Z,50.84
2023-01-19T13:34:25.861Z,50.87
2023-01-19T13:36:54.467Z,50.88
2023-01-19T13:39:25.269Z,51.00
2023-01-19T13:41:53.780Z,50.65
2023-01-19T13:44:23.686Z,50.81
2023-01-19T13:46:51.398Z,50.90
2023-01-19T13:49:21.157Z,50.94
2023-01-19T13:52:08.539Z,51.28
2023-01-19T13:54:36.300Z,51.53
2023-01-19T13:57:03.974Z,51.24
2023-01-19T13:59:31.661Z,51.29
2023-01-19T14:02:02.321Z,51.65
2023-01-19T14:04:31.055Z,51.43
2023-01-19T14:06:59.799Z,51.50
2023-01-19T14:09:28.840Z,51.14
2023-01-19T14:12:12.085Z,51.07
2023-01-19T14:14:41.089Z,50.90
2023-01-19T14:17:21.721Z,51.15
2023-01-19T14:19:49.771Z,50.78
2023-01-19T14:22:17.471Z,50.88
2023-01-19T14:24:46.505Z,50.89
2023-01-19T14:27:22.654Z,50.98
2023-01-19T14:29:53.545Z,50.76
2023-01-19T14:32:22.034Z,50.51
2023-01-19T14:34:51.132Z,50.76
2023-01-19T14:37:21.139Z,50.24
2023-01-19T14:39:50.997Z,50.43
2023-01-19T14:42:24.687Z,50.76
2023-01-19T14:44:53.088Z,50.45
2023-01-19T14:47:37.495Z,50.24
2023-01-19T14:50:08.459Z,50.21
2023-01-19T14:52:38.484Z,50.19
2023-01-19T14:55:10.081Z,50.47
2023-01-19T14:57:38.097Z,50.16
2023-01-19T15:00:17.738Z,50.42
2023-01-19T15:02:45.669Z,50.86
2023-01-19T15:05:13.509Z,50.64
2023-01-19T15:07:42.379Z,50.78
2023-01-19T15:10:16.851Z,50.70
2023-01-19T15:12:44.593Z,50.63
2023-01-19T15:15:16.505Z,50.79
2023-01-19T15:17:44.168Z,50.72
2023-01-19T15:20:16.378Z,50.51
2023-01-19T15:22:44.463Z,50.77
2023-01-19T15:25:15.655Z,50.67
2023-01-19T15:27:43.561Z,50.76
2023-01-19T15:30:18.391Z,50.87
2023-01-19T15:32:46.156Z,50.88
2023-01-19T15:35:15.641Z,50.83
2023-01-19T15:37:43.318Z,50.78
2023-01-19T15:40:12.038Z,50.92
2023-01-19T15:42:41.078Z,51.17
2023-01-19T15:45:30.761Z,51.05
2023-01-19T15:47:58.436Z,51.22
2023-01-19T15:50:26.181Z,51.11
2023-01-19T15:52:53.866Z,51.08
2023-01-19T15:55:21.597Z,51.36
2023-01-19T15:57:50.649Z,51.30
2023-01-19T16:00:18.582Z,51.17
2023-01-19T16:02:46.316Z,51.42
2023-01-19T16:05:14.048Z,51.31
2023-01-19T16:07:41.744Z,51.39
2023-01-19T16:10:10.487Z,51.50
2023-01-19T16:12:38.315Z,51.52
2023-01-19T16:15:08.937Z,51.57
2023-01-19T16:17:37.457Z,51.52
2023-01-19T16:20:05.233Z,51.54
2023-01-19T16:22:32.890Z,51.44
2023-01-19T16:25:00.614Z,51.62
2023-01-19T16:27:28.309Z,51.57
2023-01-19T16:29:57.021Z,51.54
2023-01-19T16:32:26.091Z,51.71
2023-01-19T16:34:53.762Z,51.56
2023-01-19T16:37:21.421Z,51.38
2023-01-19T16:39:51.276Z,51.66
2023-01-19T16:42:19.330Z,51.50
2023-01-19T16:44:47.073Z,51.50
2023-01-19T16:47:14.728Z,51.67
2023-01-19T16:49:43.782Z,51.57
2023-01-19T16:52:11.467Z,51.73
2023-01-19T16:54:39.509Z,51.65
2023-01-19T16:57:07.191Z,51.57
2023-01-19T16:59:35.124Z,51.59
2023-01-19T17:02:03.052Z,51.68
2023-01-19T17:04:30.792Z,51.64
2023-01-19T17:06:59.887Z,51.63
2023-01-19T17:09:27.554Z,51.78
2023-01-19T17:11:55.245Z,51.62
2023-01-19T17:14:22.933Z,51.48
2023-01-19T17:16:50.780Z,51.61
2023-01-19T17:19:19.462Z,51.52
2023-01-19T17:21:48.607Z,51.59
2023-01-19T17:24:17.792Z,51.66
2023-01-19T17:26:48.449Z,51.59
2023-01-19T17:29:16.160Z,51.71
2023-01-19T17:31:44.367Z,51.81
2023-01-19T17:34:12.068Z,51.82
2023-01-19T17:36:40.931Z,51.64
2023-01-19T17:39:11.264Z,51.90
2023-01-19T17:41:40.319Z,51.58
2023-01-19T17:44:08.033Z,51.66
2023-01-19T17:46:36.838Z,51.58
2023-01-19T17:49:05.905Z,51.85
2023-01-19T17:51:33.684Z,51.82
2023-01-19T17:54:01.371Z,51.78
2023-01-19T17:56:30.221Z,51.46
2023-01-19T17:58:59.796Z,51.63
2023-01-19T18:01:28.546Z,51.58
2023-01-19T18:03:56.419Z,51.62
2023-01-19T18:06:24.203Z,51.65
2023-01-19T18:08:52.441Z,52.26
2023-01-19T18:11:21.155Z,52.04
2023-01-19T18:13:49.537Z,52.32
2023-01-19T18:16:20.241Z,52.48
2023-01-19T18:18:49.582Z,52.29
2023-01-19T18:21:17.307Z,52.38
2023-01-19T18:23:45.584Z,52.16
2023-01-19T18:26:14.287Z,52.36
2023-01-19T18:28:41.974Z,52.14
2023-01-19T18:31:09.876Z,52.33
2023-01-19T18:33:39.605Z,52.44
2023-01-19T18:36:08.211Z,52.24
2023-01-19T18:38:35.977Z,52.29
2023-01-19T18:41:04.095Z,52.10
2023-01-19T18:43:31.835Z,51.93
2023-01-19T18:45:59.554Z,52.20
2023-01-19T18:48:27.350Z,52.16
2023-01-19T18:50:56.393Z,52.28
2023-01-19T18:53:24.212Z,52.01
2023-01-19T18:55:52.765Z,52.24
2023-01-19T18:58:20.611Z,52.20
2023-01-19T19:00:48.456Z,52.26
2023-01-19T19:03:16.194Z,52.29
2023-01-19T19:05:43.988Z,52.29
2023-01-19T19:08:13.070Z,52.28
2023-01-19T19:10:41.231Z,52.11
2023-01-19T19:13:08.917Z,52.07
2023-01-19T19:15:36.760Z,52.46
2023-01-19T19:18:04.494Z,52.18
2023-01-19T19:20:32.146Z,52.04
2023-01-19T19:22:59.836Z,52.35
2023-01-19T19:25:29.053Z,51.99
2023-01-19T19:27:56.735Z,52.19
2023-01-19T19:30:24.431Z,52.25
2023-01-19T19:32:56.040Z,52.22
2023-01-19T19:35:23.761Z,52.23
2023-01-19T19:37:51.509Z,52.28
2023-01-19T19:40:19.380Z,52.11
2023-01-19T19:42:48.399Z,52.05
2023-01-19T19:45:16.099Z,52.30
2023-01-19T19:47:43.900Z,52.52
2023-01-19T19:50:12.647Z,52.28
2023-01-19T19:52:40.644Z,52.71
2023-01-19T19:55:09.104Z,52.68
2023-01-19T19:57:36.807Z,52.36
2023-01-19T20:00:07.233Z,52.47
2023-01-19T20:02:34.930Z,52.45
2023-01-19T20:05:02.698Z,52.38
2023-01-19T20:07:30.464Z,52.43
2023-01-19T20:09:58.141Z,52.53
2023-01-19T20:12:25.896Z,52.41
2023-01-19T20:14:53.563Z,52.44
2023-01-19T20:17:23.166Z,52.33
2023-01-19T20:19:50.864Z,52.38
2023-01-19T20:22:18.546Z,52.65
2023-01-19T20:24:46.219Z,52.42
2023-01-19T20:27:13.900Z,52.58
2023-01-19T20:29:41.587Z,52.34
2023-01-19T20:32:10.672Z,52.16
2023-01-19T20:34:39.831Z,52.44
2023-01-19T20:37:07.517Z,52.23
2023-01-19T20:39:36.738Z,52.55
2023-01-19T20:42:04.968Z,52.26
2023-01-19T20:44:32.650Z,52.11
2023-01-19T20:47:00.346Z,52.50
2023-01-19T20:49:28.136Z,53.01
2023-01-19T20:51:57.186Z,53.55
2023-01-19T20:54:26.789Z,53.70
2023-01-19T20:56:54.553Z,53.34
2023-01-19T20:59:22.267Z,52.83
2023-01-19T21:01:50.237Z,52.65
2023-01-19T21:04:18.318Z,52.74
2023-01-19T21:06:46.005Z,52.82
2023-01-19T21:09:15.053Z,52.76
2023-01-19T21:11:42.723Z,53.03
2023-01-19T21:14:10.389Z,52.79
2023-01-19T21:16:38.111Z,53.05
2023-01-19T21:19:06.117Z,53.36
2023-01-19T21:21:33.807Z,53.45
2023-01-19T21:24:02.131Z,53.28
2023-01-19T21:26:31.459Z,53.10
2023-01-19T21:28:59.252Z,53.22
2023-01-19T21:31:28.011Z,53.20
2023-01-19T21:33:56.004Z,53.55
2023-01-19T21:36:23.844Z,53.96
2023-01-19T21:38:52.229Z,54.20
2023-01-19T21:41:20.019Z,54.22
2023-01-19T21:43:49.139Z,53.84
2023-01-19T21:46:18.483Z,53.86
2023-01-19T21:48:46.778Z,53.51
2023-01-19T21:51:14.533Z,53.93
2023-01-19T21:53:42.507Z,53.78
2023-01-19T21:56:10.386Z,53.57
2023-01-19T21:58:38.191Z,53.68
2023-01-19T22:01:10.658Z,53.63
2023-01-19T22:03:38.511Z,53.67
2023-01-19T22:06:06.872Z,53.69
2023-01-19T22:08:34.750Z,53.49
2023-01-19T22:11:05.297Z,54.30
2023-01-19T22:13:33.185Z,55.00
2023-01-19T22:16:01.704Z,54.64
2023-01-19T22:18:30.754Z,54.77
2023-01-19T22:21:07.926Z,54.30
2023-01-19T22:23:35.592Z,54.12
2023-01-19T22:26:03.777Z,54.51
2023-01-19T22:28:31.645Z,53.86
2023-01-19T22:31:03.826Z,53.86
2023-01-19T22:33:32.985Z,53.87
2023-01-19T22:36:11.438Z,53.88
2023-01-19T22:38:40.102Z,53.66
2023-01-19T22:41:15.650Z,53.78
2023-01-19T22:43:43.848Z,53.50
2023-01-19T22:46:11.620Z,54.00
2023-01-19T22:48:41.400Z,54.47
2023-01-19T22:51:09.318Z,54.43
2023-01-19T22:53:36.986Z,54.22
2023-01-19T22:56:11.758Z,54.37
2023-01-19T22:58:40.334Z,54.64
2023-01-19T23:01:08.602Z,55.47
2023-01-19T23:03:36.459Z,55.35
2023-01-19T23:06:06.555Z,55.28
2023-01-19T23:08:35.106Z,54.97
2023-01-19T23:11:05.755Z,54.88
2023-01-19T23:13:33.422Z,54.94
2023-01-19T23:16:01.192Z,55.03
2023-01-19T23:18:28.992Z,54.96
2023-01-19T23:20:56.784Z,55.57
2023-01-19T23:23:25.794Z,55.63
2023-01-19T23:25:53.486Z,55.75
2023-01-19T23:28:21.154Z,55.89
2023-01-19T23:30:48.898Z,56.14
2023-01-19T23:33:16.799Z,55.56
2023-01-19T23:35:44.500Z,55.48
2023-01-19T23:38:12.201Z,55.72
2023-01-19T23:40:41.229Z,55.85
2023-01-19T23:43:08.927Z,55.78
2023-01-19T23:45:36.650Z,55.44
2023-01-19T23:48:04.415Z,55.25
2023-01-19T23:50:32.093Z,55.35
2023-01-19T23:52:59.800Z,55.46
2023-01-19T23:55:28.392Z,55.07
2023-01-19T23:57:57.418Z,54.96
